sensor_id;sensor_type;location;lat;lon;timestamp;pressure;altitude;pressure_sealevel;temperature;humidity
35798;BME280;21918;49.940;7.774;2023-09-19T16:15:31;98481.66;;;23.00;55.72
35798;BME280;21918;49.940;7.774;2023-09-19T16:17:57;98492.19;;;23.00;55.86
35798;BME280;21918;49.940;7.774;2023-09-19T16:20:25;98489.38;;;23.00;56.03
35798;BME280;21918;49.940;7.774;2023-09-19T16:22:53;98496.25;;;22.99;55.99
35798;BME280;21918;49.940;7.774;2023-09-19T16:25:19;98488.19;;;22.97;56.09
35798;BME280;21918;49.940;7.774;2023-09-19T16:27:47;98496.66;;;22.97;56.09
35798;BME280;21918;49.940;7.774;2023-09-19T16:30:14;98491.03;;;22.94;56.13
35798;BME280;21918;49.940;7.774;2023-09-19T16:32:42;98499.13;;;22.92;56.11
35798;BME280;21918;49.940;7.774;2023-09-19T16:35:09;98500.00;;;22.89;56.29
35798;BME280;21918;49.940;7.774;2023-09-19T16:37:37;98494.75;;;22.87;56.48
35798;BME280;21918;49.940;7.774;2023-09-19T16:40:04;98488.28;;;22.87;56.42
35798;BME280;21918;49.940;7.774;2023-09-19T16:42:32;98495.53;;;22.88;56.40
35798;BME280;21918;49.940;7.774;2023-09-19T16:44:58;98483.06;;;22.85;56.45
35798;BME280;21918;49.940;7.774;2023-09-19T16:47:25;98483.81;;;22.89;56.62
35798;BME280;21918;49.940;7.774;2023-09-19T16:49:53;98495.13;;;22.89;56.50
35798;BME280;21918;49.940;7.774;2023-09-19T16:52:19;98491.13;;;22.87;56.39
35798;BME280;21918;49.940;7.774;2023-09-19T16:54:46;98498.41;;;22.84;56.50
35798;BME280;21918;49.940;7.774;2023-09-19T16:57:13;98496.00;;;22.83;56.46
35798;BME280;21918;49.940;7.774;2023-09-19T16:59:40;98501.69;;;22.79;56.62
35798;BME280;21918;49.940;7.774;2023-09-19T17:02:07;98513.03;;;22.76;56.57
35798;BME280;21918;49.940;7.774;2023-09-19T17:04:34;98509.78;;;22.77;56.64
35798;BME280;21918;49.940;7.774;2023-09-19T17:07:02;98512.63;;;22.77;56.63
35798;BME280;21918;49.940;7.774;2023-09-19T17:09:29;98517.44;;;22.77;56.79
35798;BME280;21918;49.940;7.774;2023-09-19T17:11:57;98511.41;;;22.75;56.94
35798;BME280;21918;49.940;7.774;2023-09-19T17:14:24;98524.34;;;22.72;56.73
35798;BME280;21918;49.940;7.774;2023-09-19T17:16:50;98527.16;;;22.72;56.88
35798;BME280;21918;49.940;7.774;2023-09-19T17:19:17;98523.91;;;22.74;57.03
35798;BME280;21918;49.940;7.774;2023-09-19T17:21:44;98518.69;;;22.76;56.75
35798;BME280;21918;49.940;7.774;2023-09-19T17:24:12;98522.25;;;22.80;56.94
35798;BME280;21918;49.940;7.774;2023-09-19T17:26:38;98523.44;;;22.82;56.86
35798;BME280;21918;49.940;7.774;2023-09-19T17:29:07;98522.19;;;22.83;56.78
35798;BME280;21918;49.940;7.774;2023-09-19T17:31:35;98527.44;;;22.85;56.90
35798;BME280;21918;49.940;7.774;2023-09-19T17:34:03;98524.16;;;22.90;57.05
35798;BME280;21918;49.940;7.774;2023-09-19T17:36:30;98518.53;;;22.90;56.80
35798;BME280;21918;49.940;7.774;2023-09-19T17:39:00;98519.34;;;22.87;56.88
35798;BME280;21918;49.940;7.774;2023-09-19T17:41:31;98526.22;;;22.86;56.99
35798;BME280;21918;49.940;7.774;2023-09-19T17:43:59;98521.00;;;22.84;57.15
35798;BME280;21918;49.940;7.774;2023-09-19T17:46:26;98524.66;;;22.81;57.04
35798;BME280;21918;49.940;7.774;2023-09-19T17:48:55;98526.66;;;22.81;57.18
35798;BME280;21918;49.940;7.774;2023-09-19T17:51:22;98521.06;;;22.77;57.01
35798;BME280;21918;49.940;7.774;2023-09-19T17:53:49;98523.09;;;22.73;57.36
35798;BME280;21918;49.940;7.774;2023-09-19T17:56:16;98519.53;;;22.69;57.33
35798;BME280;21918;49.940;7.774;2023-09-19T17:58:46;98528.47;;;22.64;57.30
35798;BME280;21918;49.940;7.774;2023-09-19T18:01:19;98524.06;;;22.60;57.39
35798;BME280;21918;49.940;7.774;2023-09-19T18:03:46;98532.53;;;22.60;57.56
35798;BME280;21918;49.940;7.774;2023-09-19T18:06:14;98525.28;;;22.59;57.43
35798;BME280;21918;49.940;7.774;2023-09-19T18:08:41;98535.75;;;22.62;57.42
35798;BME280;21918;49.940;7.774;2023-09-19T18:11:12;98529.22;;;22.68;57.44
35798;BME280;21918;49.940;7.774;2023-09-19T18:13:39;98536.84;;;22.71;57.31
35798;BME280;21918;49.940;7.774;2023-09-19T18:16:07;98548.50;;;22.73;57.48
35798;BME280;21918;49.940;7.774;2023-09-19T18:18:34;98547.72;;;22.73;57.43
35798;BME280;21918;49.940;7.774;2023-09-19T18:21:01;98555.78;;;22.74;57.45
35798;BME280;21918;49.940;7.774;2023-09-19T18:23:29;98553.34;;;22.76;57.32
35798;BME280;21918;49.940;7.774;2023-09-19T18:25:56;98548.91;;;22.79;57.41
35798;BME280;21918;49.940;7.774;2023-09-19T18:28:23;98550.06;;;22.81;57.31
35798;BME280;21918;49.940;7.774;2023-09-19T18:30:50;98547.66;;;22.80;57.39
35798;BME280;21918;49.940;7.774;2023-09-19T18:33:18;98555.31;;;22.79;57.13
35798;BME280;21918;49.940;7.774;2023-09-19T18:35:44;98555.38;;;22.76;57.24
35798;BME280;21918;49.940;7.774;2023-09-19T18:38:11;98550.91;;;22.75;57.30
35798;BME280;21918;49.940;7.774;2023-09-19T18:40:42;98551.75;;;22.75;57.27
35798;BME280;21918;49.940;7.774;2023-09-19T18:43:09;98550.56;;;22.73;57.30
35798;BME280;21918;49.940;7.774;2023-09-19T18:45:36;98553.78;;;22.71;57.27
35798;BME280;21918;49.940;7.774;2023-09-19T18:48:03;98555.03;;;22.67;57.37
35798;BME280;21918;49.940;7.774;2023-09-19T18:50:31;98549.00;;;22.65;57.34
35798;BME280;21918;49.940;7.774;2023-09-19T18:52:58;98561.53;;;22.64;57.48
35798;BME280;21918;49.940;7.774;2023-09-19T18:55:25;98557.53;;;22.61;57.17
35798;BME280;21918;49.940;7.774;2023-09-19T18:57:52;98566.81;;;22.55;57.15
35798;BME280;21918;49.940;7.774;2023-09-19T19:00:18;98565.66;;;22.52;57.40
35798;BME280;21918;49.940;7.774;2023-09-19T19:02:50;98564.88;;;22.52;57.48
35798;BME280;21918;49.940;7.774;2023-09-19T19:05:18;98568.06;;;22.54;57.37
35798;BME280;21918;49.940;7.774;2023-09-19T19:07:47;98564.00;;;22.55;57.48
35798;BME280;21918;49.940;7.774;2023-09-19T19:10:14;98568.06;;;22.54;57.61
35798;BME280;21918;49.940;7.774;2023-09-19T19:12:41;98560.00;;;22.52;57.51
35798;BME280;21918;49.940;7.774;2023-09-19T19:15:08;98558.00;;;22.53;57.30
35798;BME280;21918;49.940;7.774;2023-09-19T19:17:35;98557.56;;;22.54;57.48
35798;BME280;21918;49.940;7.774;2023-09-19T19:20:03;98552.69;;;22.58;57.38
35798;BME280;21918;49.940;7.774;2023-09-19T19:22:32;98549.06;;;22.58;57.39
35798;BME280;21918;49.940;7.774;2023-09-19T19:25:03;98556.69;;;22.61;57.66
35798;BME280;21918;49.940;7.774;2023-09-19T19:27:30;98556.69;;;22.64;57.33
35798;BME280;21918;49.940;7.774;2023-09-19T19:29:57;98563.91;;;22.69;57.52
35798;BME280;21918;49.940;7.774;2023-09-19T19:32:23;98559.84;;;22.70;57.35
35798;BME280;21918;49.940;7.774;2023-09-19T19:34:52;98551.00;;;22.68;57.13
35798;BME280;21918;49.940;7.774;2023-09-19T19:37:19;98551.03;;;22.64;57.20
35798;BME280;21918;49.940;7.774;2023-09-19T19:39:45;98557.88;;;22.67;57.39
35798;BME280;21918;49.940;7.774;2023-09-19T19:42:14;98553.41;;;22.69;57.19
35798;BME280;21918;49.940;7.774;2023-09-19T19:44:40;98548.56;;;22.70;57.16
35798;BME280;21918;49.940;7.774;2023-09-19T19:47:07;98548.59;;;22.66;57.24
35798;BME280;21918;49.940;7.774;2023-09-19T19:49:34;98554.28;;;22.63;57.27
35798;BME280;21918;49.940;7.774;2023-09-19T19:52:01;98557.53;;;22.61;57.35
35798;BME280;21918;49.940;7.774;2023-09-19T19:54:30;98555.50;;;22.62;57.28
35798;BME280;21918;49.940;7.774;2023-09-19T19:56:56;98557.53;;;22.58;57.24
35798;BME280;21918;49.940;7.774;2023-09-19T19:59:24;98566.81;;;22.58;57.17
35798;BME280;21918;49.940;7.774;2023-09-19T20:01:51;98561.19;;;22.55;57.40
35798;BME280;21918;49.940;7.774;2023-09-19T20:04:18;98561.63;;;22.53;57.47
35798;BME280;21918;49.940;7.774;2023-09-19T20:06:44;98560.81;;;22.53;57.57
35798;BME280;21918;49.940;7.774;2023-09-19T20:09:11;98570.88;;;22.54;57.53
35798;BME280;21918;49.940;7.774;2023-09-19T20:11:39;98556.78;;;22.54;57.57
35798;BME280;21918;49.940;7.774;2023-09-19T20:14:07;98563.59;;;22.56;57.49
35798;BME280;21918;49.940;7.774;2023-09-19T20:16:35;98564.00;;;22.55;57.56
35798;BME280;21918;49.940;7.774;2023-09-19T20:19:02;98563.19;;;22.58;57.94
35798;BME280;21918;49.940;7.774;2023-09-19T20:21:31;98564.38;;;22.60;57.74
35798;BME280;21918;49.940;7.774;2023-09-19T20:23:58;98565.94;;;22.65;57.51
35798;BME280;21918;49.940;7.774;2023-09-19T20:26:32;98562.34;;;22.64;57.55
35798;BME280;21918;49.940;7.774;2023-09-19T20:28:59;98568.75;;;22.65;57.58
35798;BME280;21918;49.940;7.774;2023-09-19T20:31:26;98564.34;;;22.64;57.46
35798;BME280;21918;49.940;7.774;2023-09-19T20:33:57;98560.34;;;22.61;57.36
35798;BME280;21918;49.940;7.774;2023-09-19T20:36:24;98557.94;;;22.60;57.45
35798;BME280;21918;49.940;7.774;2023-09-19T20:38:51;98566.81;;;22.58;57.54
35798;BME280;21918;49.940;7.774;2023-09-19T20:41:20;98564.81;;;22.59;57.60
35798;BME280;21918;49.940;7.774;2023-09-19T20:43:46;98559.56;;;22.57;57.65
35798;BME280;21918;49.940;7.774;2023-09-19T20:46:13;98558.75;;;22.57;57.49
35798;BME280;21918;49.940;7.774;2023-09-19T20:48:41;98557.94;;;22.56;57.79
35798;BME280;21918;49.940;7.774;2023-09-19T20:51:10;98560.75;;;22.60;57.60
35798;BME280;21918;49.940;7.774;2023-09-19T20:53:39;98559.56;;;22.57;57.58
35798;BME280;21918;49.940;7.774;2023-09-19T20:56:06;98557.94;;;22.56;57.86
35798;BME280;21918;49.940;7.774;2023-09-19T20:58:35;98553.13;;;22.57;57.77
35798;BME280;21918;49.940;7.774;2023-09-19T21:01:05;98553.50;;;22.59;57.74
35798;BME280;21918;49.940;7.774;2023-09-19T21:03:32;98559.16;;;22.59;57.61
35798;BME280;21918;49.940;7.774;2023-09-19T21:06:00;98558.34;;;22.58;57.62
35798;BME280;21918;49.940;7.774;2023-09-19T21:08:30;98547.88;;;22.59;57.66
35798;BME280;21918;49.940;7.774;2023-09-19T21:10:57;98557.53;;;22.58;57.89
35798;BME280;21918;49.940;7.774;2023-09-19T21:13:24;98562.34;;;22.61;57.77
35798;BME280;21918;49.940;7.774;2023-09-19T21:15:50;98547.06;;;22.58;57.85
35798;BME280;21918;49.940;7.774;2023-09-19T21:18:17;98546.63;;;22.60;57.70
35798;BME280;21918;49.940;7.774;2023-09-19T21:20:44;98555.53;;;22.58;57.70
35798;BME280;21918;49.940;7.774;2023-09-19T21:23:10;98547.47;;;22.57;57.77
35798;BME280;21918;49.940;7.774;2023-09-19T21:25:40;98543.00;;;22.59;57.83
35798;BME280;21918;49.940;7.774;2023-09-19T21:28:07;98541.00;;;22.60;57.83
35798;BME280;21918;49.940;7.774;2023-09-19T21:30:34;98536.94;;;22.61;57.86
35798;BME280;21918;49.940;7.774;2023-09-19T21:33:01;98530.88;;;22.62;57.64
35798;BME280;21918;49.940;7.774;2023-09-19T21:35:28;98541.41;;;22.62;57.71
35798;BME280;21918;49.940;7.774;2023-09-19T21:37:55;98541.41;;;22.62;57.78
35798;BME280;21918;49.940;7.774;2023-09-19T21:40:23;98548.63;;;22.63;57.89
35798;BME280;21918;49.940;7.774;2023-09-19T21:42:51;98543.00;;;22.63;57.78
